Pittsburg, IL

4:43 PM CDT on October 20, 2014 (GMT -0500)
WB0VTM - HAM RADIO | Change Station
CLOSE
Current Station
Personal Weather Station
Location: Marion, IL
Elevation: 492 ft
Nearby Weather Stations

Elev 492 ft 37.72 °N, 88.95 °W | Updated 2 minutes ago

Clear
Clear
75.2 °F
Feels Like 77 °F
N
3.7
Wind Variable Wind from WSW

Today
High -- | Low -- °F
--% Chance of Precip.
Yesterday
High -- | Low -- °F
Precip. -- in
7:08 AM 6:11 PM
Waning Crescent, 9% visible
Pressure 29.92 in
Visibility 20.0 miles
Clouds Few 6000 ft
Heat Index 77 °F
Dew Point 65 °F
Humidity 71%
Rainfall 0.00 in
Snow Depth Not available.
UV 2 out of 12
Pollen 2.30 out of 12
Air Quality Not available.
Flu Activity No Activity
METAR KMWA 202058Z 25010KT 20SM FEW060 24/12 A2992

More Conditions Fewer Conditions

Pressure 29.92 in
Visibility 20.0 miles
Clouds Few 6000 ft
Heat Index 77 °F
Dew Point 65 °F
Humidity 71%
Rainfall 0.00 in
Snow Depth Not available.
UV 2 out of 12
Pollen 2.30 out of 12
Air Quality Not available.
Flu Activity No Activity
METAR KMWA 202058Z 25010KT 20SM FEW060 24/12 A2992

More Conditions Fewer Conditions

10-Day Weather Forecast

Almanac

Astronomy

Oct. 20, 2014 Rise Set
Actual Time 7:08 AM CDT 6:11 PM CDT
Civil Twilight 6:42 AM CDT 6:37 PM CDT
Nautical Twilight 6:11 AM CDT 7:08 PM CDT
Astronomical Twilight 5:41 AM CDT 7:38 PM CDT
Moon 4:00 AM CDT 4:31 PM CDT
Length of Visible Light 11h 55m
Length of Day
11h 02m
Waning Crescent, 9% of the Moon is Illuminated
Today
Waning Crescent
Oct 23
New
Oct 30
First Quarter
Nov 6
Full
Nov 14
Last Quarter

Today's Extremes

State Highs State Lows

Community

WunderPhotos

Upload Photos

1,763,527 photos uploaded!

WunderBlogs® & News

Nearby

Snow Depth

Station Depth Elevation
No new snow has been reported.

Earthquake Activity

City Distance Mag. Time & Date
No recent earthquake activity has been reported nearby.
Minimum magnitude displayed is 2.5.

Coastal Water Temperatures

Place Temperature
No Stations Reporting

Nearby Weather Stations